sensor_id;sensor_type;location;lat;lon;timestamp;P1;durP1;ratioP1;P2;durP2;ratioP2
73954;SDS011;62306;52.516;13.290;2024-02-21T00:00:08;30.08;;;7.80;;
73954;SDS011;62306;52.516;13.290;2024-02-21T00:02:36;22.48;;;7.00;;
73954;SDS011;62306;52.516;13.290;2024-02-21T00:05:05;23.55;;;7.45;;
73954;SDS011;62306;52.516;13.290;2024-02-21T00:07:32;28.83;;;7.43;;
73954;SDS011;62306;52.516;13.290;2024-02-21T00:09:59;32.47;;;7.75;;
73954;SDS011;62306;52.516;13.290;2024-02-21T00:12:26;27.92;;;6.97;;
73954;SDS011;62306;52.516;13.290;2024-02-21T00:14:53;28.67;;;7.57;;
73954;SDS011;62306;52.516;13.290;2024-02-21T00:17:20;28.13;;;7.20;;
73954;SDS011;62306;52.516;13.290;2024-02-21T00:19:47;21.60;;;6.60;;
73954;SDS011;62306;52.516;13.290;2024-02-21T00:22:16;29.05;;;7.50;;
73954;SDS011;62306;52.516;13.290;2024-02-21T00:24:43;31.17;;;8.73;;
73954;SDS011;62306;52.516;13.290;2024-02-21T00:27:10;42.30;;;14.75;;
73954;SDS011;62306;52.516;13.290;2024-02-21T00:29:37;34.10;;;8.77;;
73954;SDS011;62306;52.516;13.290;2024-02-21T00:32:04;32.22;;;7.60;;
73954;SDS011;62306;52.516;13.290;2024-02-21T00:34:31;32.03;;;8.00;;
73954;SDS011;62306;52.516;13.290;2024-02-21T00:36:58;29.17;;;7.82;;
73954;SDS011;62306;52.516;13.290;2024-02-21T00:39:27;30.63;;;7.20;;
73954;SDS011;62306;52.516;13.290;2024-02-21T00:41:53;23.30;;;7.20;;
73954;SDS011;62306;52.516;13.290;2024-02-21T00:44:20;28.17;;;6.85;;
73954;SDS011;62306;52.516;13.290;2024-02-21T00:46:47;25.42;;;6.68;;
73954;SDS011;62306;52.516;13.290;2024-02-21T00:49:14;28.48;;;6.90;;
73954;SDS011;62306;52.516;13.290;2024-02-21T00:51:41;29.63;;;7.20;;
73954;SDS011;62306;52.516;13.290;2024-02-21T00:54:08;28.55;;;5.85;;
73954;SDS011;62306;52.516;13.290;2024-02-21T00:56:37;29.40;;;6.60;;
73954;SDS011;62306;52.516;13.290;2024-02-21T00:59:04;22.65;;;6.60;;
73954;SDS011;62306;52.516;13.290;2024-02-21T01:01:31;29.63;;;7.30;;
73954;SDS011;62306;52.516;13.290;2024-02-21T01:03:58;24.70;;;6.97;;
73954;SDS011;62306;52.516;13.290;2024-02-21T01:06:25;25.30;;;6.55;;
73954;SDS011;62306;52.516;13.290;2024-02-21T01:08:52;24.60;;;7.22;;
73954;SDS011;62306;52.516;13.290;2024-02-21T01:11:19;21.27;;;6.18;;
73954;SDS011;62306;52.516;13.290;2024-02-21T01:13:47;20.30;;;6.93;;
73954;SDS011;62306;52.516;13.290;2024-02-21T01:16:14;20.05;;;6.00;;
73954;SDS011;62306;52.516;13.290;2024-02-21T01:18:41;26.42;;;6.05;;
73954;SDS011;62306;52.516;13.290;2024-02-21T01:21:08;29.48;;;6.85;;
73954;SDS011;62306;52.516;13.290;2024-02-21T01:23:35;25.92;;;6.75;;
73954;SDS011;62306;52.516;13.290;2024-02-21T01:26:03;19.85;;;6.28;;
73954;SDS011;62306;52.516;13.290;2024-02-21T01:28:33;22.58;;;6.18;;
73954;SDS011;62306;52.516;13.290;2024-02-21T01:31:02;21.88;;;6.63;;
73954;SDS011;62306;52.516;13.290;2024-02-21T01:33:29;19.17;;;5.38;;
73954;SDS011;62306;52.516;13.290;2024-02-21T01:35:59;22.40;;;6.53;;
73954;SDS011;62306;52.516;13.290;2024-02-21T01:38:26;20.65;;;6.90;;
73954;SDS011;62306;52.516;13.290;2024-02-21T01:40:54;26.95;;;5.57;;
73954;SDS011;62306;52.516;13.290;2024-02-21T01:43:21;26.08;;;6.35;;
73954;SDS011;62306;52.516;13.290;2024-02-21T01:45:49;22.65;;;5.85;;
73954;SDS011;62306;52.516;13.290;2024-02-21T01:48:19;22.33;;;5.78;;
73954;SDS011;62306;52.516;13.290;2024-02-21T01:50:48;19.27;;;5.70;;
73954;SDS011;62306;52.516;13.290;2024-02-21T01:53:16;25.65;;;6.47;;
73954;SDS011;62306;52.516;13.290;2024-02-21T01:55:47;27.33;;;10.70;;
73954;SDS011;62306;52.516;13.290;2024-02-21T01:58:15;26.05;;;5.90;;
73954;SDS011;62306;52.516;13.290;2024-02-21T02:00:43;25.67;;;6.32;;
73954;SDS011;62306;52.516;13.290;2024-02-21T02:03:10;23.85;;;6.32;;
73954;SDS011;62306;52.516;13.290;2024-02-21T02:05:43;21.65;;;5.47;;
73954;SDS011;62306;52.516;13.290;2024-02-21T02:08:11;30.58;;;5.13;;
73954;SDS011;62306;52.516;13.290;2024-02-21T02:10:39;19.30;;;5.72;;
73954;SDS011;62306;52.516;13.290;2024-02-21T02:13:06;24.60;;;5.10;;
73954;SDS011;62306;52.516;13.290;2024-02-21T02:15:40;22.48;;;6.18;;
73954;SDS011;62306;52.516;13.290;2024-02-21T02:18:07;23.73;;;6.50;;
73954;SDS011;62306;52.516;13.290;2024-02-21T02:20:35;26.77;;;6.10;;
73954;SDS011;62306;52.516;13.290;2024-02-21T02:23:05;19.23;;;5.82;;
73954;SDS011;62306;52.516;13.290;2024-02-21T02:25:37;30.45;;;6.18;;
73954;SDS011;62306;52.516;13.290;2024-02-21T02:28:05;32.10;;;6.90;;
73954;SDS011;62306;52.516;13.290;2024-02-21T02:30:32;17.48;;;5.25;;
73954;SDS011;62306;52.516;13.290;2024-02-21T02:33:01;21.75;;;5.53;;
73954;SDS011;62306;52.516;13.290;2024-02-21T02:35:29;19.92;;;5.88;;
73954;SDS011;62306;52.516;13.290;2024-02-21T02:37:56;28.85;;;5.47;;
73954;SDS011;62306;52.516;13.290;2024-02-21T02:40:23;17.55;;;5.82;;
73954;SDS011;62306;52.516;13.290;2024-02-21T02:42:52;20.52;;;6.30;;
73954;SDS011;62306;52.516;13.290;2024-02-21T02:45:20;21.73;;;6.35;;
73954;SDS011;62306;52.516;13.290;2024-02-21T02:47:49;20.58;;;5.78;;
73954;SDS011;62306;52.516;13.290;2024-02-21T02:50:16;23.85;;;6.30;;
73954;SDS011;62306;52.516;13.290;2024-02-21T02:52:42;22.63;;;6.03;;
73954;SDS011;62306;52.516;13.290;2024-02-21T02:55:09;24.65;;;6.15;;
73954;SDS011;62306;52.516;13.290;2024-02-21T02:57:36;26.65;;;6.22;;
73954;SDS011;62306;52.516;13.290;2024-02-21T03:00:05;21.92;;;6.50;;
73954;SDS011;62306;52.516;13.290;2024-02-21T03:02:33;25.58;;;6.78;;
73954;SDS011;62306;52.516;13.290;2024-02-21T03:05:00;23.27;;;6.13;;
73954;SDS011;62306;52.516;13.290;2024-02-21T03:07:37;27.88;;;6.47;;
73954;SDS011;62306;52.516;13.290;2024-02-21T03:10:04;22.45;;;6.78;;
73954;SDS011;62306;52.516;13.290;2024-02-21T03:12:32;22.25;;;6.97;;
73954;SDS011;62306;52.516;13.290;2024-02-21T03:14:58;18.95;;;6.55;;
73954;SDS011;62306;52.516;13.290;2024-02-21T03:17:27;24.55;;;6.97;;
73954;SDS011;62306;52.516;13.290;2024-02-21T03:19:54;23.95;;;7.53;;
73954;SDS011;62306;52.516;13.290;2024-02-21T03:22:21;24.92;;;6.63;;
73954;SDS011;62306;52.516;13.290;2024-02-21T03:24:48;20.25;;;6.38;;
73954;SDS011;62306;52.516;13.290;2024-02-21T03:27:15;21.85;;;6.60;;
73954;SDS011;62306;52.516;13.290;2024-02-21T03:29:42;18.60;;;6.22;;
73954;SDS011;62306;52.516;13.290;2024-02-21T03:32:09;25.45;;;7.40;;
73954;SDS011;62306;52.516;13.290;2024-02-21T03:34:37;24.88;;;7.80;;
73954;SDS011;62306;52.516;13.290;2024-02-21T03:37:04;23.90;;;6.75;;
73954;SDS011;62306;52.516;13.290;2024-02-21T03:39:31;21.27;;;6.85;;
73954;SDS011;62306;52.516;13.290;2024-02-21T03:41:58;27.35;;;7.68;;
73954;SDS011;62306;52.516;13.290;2024-02-21T03:44:29;27.48;;;7.85;;
73954;SDS011;62306;52.516;13.290;2024-02-21T03:46:56;21.80;;;7.93;;
73954;SDS011;62306;52.516;13.290;2024-02-21T03:49:23;22.48;;;7.40;;
73954;SDS011;62306;52.516;13.290;2024-02-21T03:51:52;27.73;;;8.02;;
73954;SDS011;62306;52.516;13.290;2024-02-21T03:54:19;27.65;;;7.38;;
73954;SDS011;62306;52.516;13.290;2024-02-21T03:56:46;24.85;;;8.95;;
73954;SDS011;62306;52.516;13.290;2024-02-21T03:59:14;24.08;;;8.07;;
73954;SDS011;62306;52.516;13.290;2024-02-21T04:01:41;20.05;;;7.32;;
73954;SDS011;62306;52.516;13.290;2024-02-21T04:04:08;20.75;;;7.18;;
73954;SDS011;62306;52.516;13.290;2024-02-21T04:06:35;19.50;;;7.68;;
73954;SDS011;62306;52.516;13.290;2024-02-21T04:09:04;24.40;;;6.88;;
73954;SDS011;62306;52.516;13.290;2024-02-21T04:11:31;25.15;;;7.15;;
73954;SDS011;62306;52.516;13.290;2024-02-21T04:13:58;26.27;;;8.40;;
73954;SDS011;62306;52.516;13.290;2024-02-21T04:16:24;23.73;;;7.90;;
73954;SDS011;62306;52.516;13.290;2024-02-21T04:18:51;23.98;;;7.13;;
73954;SDS011;62306;52.516;13.290;2024-02-21T04:21:18;22.05;;;7.95;;
73954;SDS011;62306;52.516;13.290;2024-02-21T04:23:45;30.13;;;8.18;;
73954;SDS011;62306;52.516;13.290;2024-02-21T04:26:13;23.10;;;8.45;;
73954;SDS011;62306;52.516;13.290;2024-02-21T04:28:40;31.75;;;8.35;;
73954;SDS011;62306;52.516;13.290;2024-02-21T04:31:07;24.30;;;9.00;;
73954;SDS011;62306;52.516;13.290;2024-02-21T04:33:34;32.22;;;8.98;;
73954;SDS011;62306;52.516;13.290;2024-02-21T04:36:01;29.17;;;7.78;;
73954;SDS011;62306;52.516;13.290;2024-02-21T04:38:28;31.75;;;8.38;;
73954;SDS011;62306;52.516;13.290;2024-02-21T04:40:55;36.28;;;9.35;;
73954;SDS011;62306;52.516;13.290;2024-02-21T04:43:24;27.02;;;9.18;;
73954;SDS011;62306;52.516;13.290;2024-02-21T04:45:51;24.70;;;8.32;;
73954;SDS011;62306;52.516;13.290;2024-02-21T04:48:19;31.50;;;8.60;;
73954;SDS011;62306;52.516;13.290;2024-02-21T04:50:46;26.85;;;8.45;;
73954;SDS011;62306;52.516;13.290;2024-02-21T04:53:13;20.58;;;8.15;;
73954;SDS011;62306;52.516;13.290;2024-02-21T04:55:41;31.92;;;8.38;;
73954;SDS011;62306;52.516;13.290;2024-02-21T04:58:08;22.02;;;8.52;;
73954;SDS011;62306;52.516;13.290;2024-02-21T05:00:36;25.75;;;9.02;;
73954;SDS011;62306;52.516;13.290;2024-02-21T05:03:03;34.25;;;9.52;;
73954;SDS011;62306;52.516;13.290;2024-02-21T05:05:30;29.33;;;9.30;;
73954;SDS011;62306;52.516;13.290;2024-02-21T05:07:57;30.67;;;9.25;;
73954;SDS011;62306;52.516;13.290;2024-02-21T05:10:24;31.25;;;9.57;;
73954;SDS011;62306;52.516;13.290;2024-02-21T05:12:51;26.10;;;9.90;;
73954;SDS011;62306;52.516;13.290;2024-02-21T05:15:18;27.13;;;9.38;;
73954;SDS011;62306;52.516;13.290;2024-02-21T05:17:46;23.55;;;8.48;;
73954;SDS011;62306;52.516;13.290;2024-02-21T05:20:13;28.75;;;8.80;;
73954;SDS011;62306;52.516;13.290;2024-02-21T05:22:40;26.27;;;9.60;;
73954;SDS011;62306;52.516;13.290;2024-02-21T05:25:07;32.22;;;9.00;;
73954;SDS011;62306;52.516;13.290;2024-02-21T05:27:34;40.33;;;9.70;;
73954;SDS011;62306;52.516;13.290;2024-02-21T05:30:04;30.65;;;9.40;;
73954;SDS011;62306;52.516;13.290;2024-02-21T05:32:32;29.05;;;9.95;;
73954;SDS011;62306;52.516;13.290;2024-02-21T05:35:00;25.17;;;9.00;;
73954;SDS011;62306;52.516;13.290;2024-02-21T05:37:27;31.88;;;11.02;;
73954;SDS011;62306;52.516;13.290;2024-02-21T05:39:54;29.02;;;9.45;;
73954;SDS011;62306;52.516;13.290;2024-02-21T05:42:21;37.03;;;9.57;;
73954;SDS011;62306;52.516;13.290;2024-02-21T05:44:48;21.23;;;8.38;;
73954;SDS011;62306;52.516;13.290;2024-02-21T05:47:15;29.45;;;10.40;;
73954;SDS011;62306;52.516;13.290;2024-02-21T05:49:42;26.52;;;9.15;;
73954;SDS011;62306;52.516;13.290;2024-02-21T05:52:10;32.70;;;10.32;;
73954;SDS011;62306;52.516;13.290;2024-02-21T05:54:37;21.45;;;9.45;;
73954;SDS011;62306;52.516;13.290;2024-02-21T05:57:05;33.83;;;10.65;;
73954;SDS011;62306;52.516;13.290;2024-02-21T05:59:34;34.05;;;11.30;;
73954;SDS011;62306;52.516;13.290;2024-02-21T06:02:05;35.72;;;11.68;;
73954;SDS011;62306;52.516;13.290;2024-02-21T06:04:32;32.13;;;10.02;;
73954;SDS011;62306;52.516;13.290;2024-02-21T06:06:59;26.65;;;9.75;;
73954;SDS011;62306;52.516;13.290;2024-02-21T06:09:27;31.92;;;9.93;;
73954;SDS011;62306;52.516;13.290;2024-02-21T06:11:54;28.98;;;10.20;;
73954;SDS011;62306;52.516;13.290;2024-02-21T06:14:21;20.95;;;9.95;;
73954;SDS011;62306;52.516;13.290;2024-02-21T06:16:48;31.23;;;10.73;;
73954;SDS011;62306;52.516;13.290;2024-02-21T06:19:15;32.78;;;10.45;;
73954;SDS011;62306;52.516;13.290;2024-02-21T06:21:42;24.85;;;10.40;;
73954;SDS011;62306;52.516;13.290;2024-02-21T06:24:08;29.42;;;9.98;;
73954;SDS011;62306;52.516;13.290;2024-02-21T06:26:38;38.28;;;9.75;;
73954;SDS011;62306;52.516;13.290;2024-02-21T06:29:06;33.40;;;10.25;;
73954;SDS011;62306;52.516;13.290;2024-02-21T06:31:33;27.15;;;10.73;;
73954;SDS011;62306;52.516;13.290;2024-02-21T06:34:01;28.92;;;10.38;;
73954;SDS011;62306;52.516;13.290;2024-02-21T06:36:29;36.92;;;10.43;;
73954;SDS011;62306;52.516;13.290;2024-02-21T06:38:56;28.05;;;11.00;;
73954;SDS011;62306;52.516;13.290;2024-02-21T06:41:24;23.23;;;9.55;;
73954;SDS011;62306;52.516;13.290;2024-02-21T06:43:53;27.10;;;10.68;;
73954;SDS011;62306;52.516;13.290;2024-02-21T06:46:23;25.70;;;9.73;;
73954;SDS011;62306;52.516;13.290;2024-02-21T06:48:50;35.67;;;10.00;;
73954;SDS011;62306;52.516;13.290;2024-02-21T06:51:17;23.27;;;10.40;;
73954;SDS011;62306;52.516;13.290;2024-02-21T06:53:44;33.75;;;10.45;;
73954;SDS011;62306;52.516;13.290;2024-02-21T06:56:11;28.05;;;11.50;;
73954;SDS011;62306;52.516;13.290;2024-02-21T06:58:38;34.10;;;10.20;;
73954;SDS011;62306;52.516;13.290;2024-02-21T07:01:07;24.30;;;10.20;;
73954;SDS011;62306;52.516;13.290;2024-02-21T07:03:34;21.98;;;9.50;;
73954;SDS011;62306;52.516;13.290;2024-02-21T07:06:01;20.67;;;10.48;;
73954;SDS011;62306;52.516;13.290;2024-02-21T07:08:29;27.40;;;10.20;;
73954;SDS011;62306;52.516;13.290;2024-02-21T07:10:56;25.50;;;10.38;;
73954;SDS011;62306;52.516;13.290;2024-02-21T07:13:23;26.73;;;10.15;;
73954;SDS011;62306;52.516;13.290;2024-02-21T07:15:49;24.05;;;10.02;;
73954;SDS011;62306;52.516;13.290;2024-02-21T07:18:18;24.80;;;10.38;;
73954;SDS011;62306;52.516;13.290;2024-02-21T07:20:45;24.67;;;10.63;;
73954;SDS011;62306;52.516;13.290;2024-02-21T07:23:12;19.92;;;9.65;;
73954;SDS011;62306;52.516;13.290;2024-02-21T07:25:39;27.52;;;9.85;;
73954;SDS011;62306;52.516;13.290;2024-02-21T07:28:06;29.00;;;10.68;;
73954;SDS011;62306;52.516;13.290;2024-02-21T07:30:34;21.88;;;9.85;;
73954;SDS011;62306;52.516;13.290;2024-02-21T07:33:01;22.40;;;10.02;;
73954;SDS011;62306;52.516;13.290;2024-02-21T07:35:29;22.45;;;9.55;;
73954;SDS011;62306;52.516;13.290;2024-02-21T07:37:56;26.60;;;9.63;;
73954;SDS011;62306;52.516;13.290;2024-02-21T07:40:23;28.15;;;9.90;;
73954;SDS011;62306;52.516;13.290;2024-02-21T07:42:50;21.55;;;8.98;;
73954;SDS011;62306;52.516;13.290;2024-02-21T07:45:17;23.20;;;9.13;;
73954;SDS011;62306;52.516;13.290;2024-02-21T07:47:46;20.75;;;9.38;;
73954;SDS011;62306;52.516;13.290;2024-02-21T07:50:13;23.75;;;9.35;;
73954;SDS011;62306;52.516;13.290;2024-02-21T07:52:42;25.80;;;9.45;;
73954;SDS011;62306;52.516;13.290;2024-02-21T07:55:09;30.10;;;8.55;;
73954;SDS011;62306;52.516;13.290;2024-02-21T07:57:36;29.77;;;9.70;;
73954;SDS011;62306;52.516;13.290;2024-02-21T08:00:04;24.33;;;9.80;;
73954;SDS011;62306;52.516;13.290;2024-02-21T08:02:34;23.50;;;9.50;;
73954;SDS011;62306;52.516;13.290;2024-02-21T08:05:02;29.40;;;8.73;;
73954;SDS011;62306;52.516;13.290;2024-02-21T08:07:30;22.80;;;9.43;;
73954;SDS011;62306;52.516;13.290;2024-02-21T08:09:58;27.33;;;9.70;;
73954;SDS011;62306;52.516;13.290;2024-02-21T08:12:25;23.08;;;9.35;;
73954;SDS011;62306;52.516;13.290;2024-02-21T08:14:52;25.00;;;9.05;;
73954;SDS011;62306;52.516;13.290;2024-02-21T08:17:19;22.30;;;9.43;;
73954;SDS011;62306;52.516;13.290;2024-02-21T08:19:46;20.55;;;8.60;;
73954;SDS011;62306;52.516;13.290;2024-02-21T08:22:14;20.52;;;8.65;;
73954;SDS011;62306;52.516;13.290;2024-02-21T08:24:41;24.08;;;9.00;;
73954;SDS011;62306;52.516;13.290;2024-02-21T08:27:09;23.45;;;9.88;;
73954;SDS011;62306;52.516;13.290;2024-02-21T08:29:36;21.30;;;8.80;;
73954;SDS011;62306;52.516;13.290;2024-02-21T08:32:03;26.83;;;10.20;;
73954;SDS011;62306;52.516;13.290;2024-02-21T08:34:30;28.15;;;9.85;;
73954;SDS011;62306;52.516;13.290;2024-02-21T08:36:59;28.45;;;10.70;;
73954;SDS011;62306;52.516;13.290;2024-02-21T08:39:26;23.92;;;10.30;;
73954;SDS011;62306;52.516;13.290;2024-02-21T08:41:55;20.33;;;8.98;;
73954;SDS011;62306;52.516;13.290;2024-02-21T08:44:24;22.30;;;9.48;;
73954;SDS011;62306;52.516;13.290;2024-02-21T08:46:52;23.00;;;9.27;;
73954;SDS011;62306;52.516;13.290;2024-02-21T08:49:19;19.42;;;8.85;;
73954;SDS011;62306;52.516;13.290;2024-02-21T08:51:45;22.27;;;10.27;;
73954;SDS011;62306;52.516;13.290;2024-02-21T08:54:12;23.10;;;9.52;;
73954;SDS011;62306;52.516;13.290;2024-02-21T08:56:39;23.75;;;10.25;;
73954;SDS011;62306;52.516;13.290;2024-02-21T08:59:06;22.70;;;9.57;;
73954;SDS011;62306;52.516;13.290;2024-02-21T09:01:34;17.88;;;8.77;;
73954;SDS011;62306;52.516;13.290;2024-02-21T09:04:02;21.13;;;9.15;;
73954;SDS011;62306;52.516;13.290;2024-02-21T09:06:30;18.85;;;9.25;;
73954;SDS011;62306;52.516;13.290;2024-02-21T09:08:59;24.23;;;9.65;;
73954;SDS011;62306;52.516;13.290;2024-02-21T09:11:26;27.40;;;10.30;;
73954;SDS011;62306;52.516;13.290;2024-02-21T09:13:53;26.67;;;10.95;;
73954;SDS011;62306;52.516;13.290;2024-02-21T09:16:20;20.20;;;10.05;;
73954;SDS011;62306;52.516;13.290;2024-02-21T09:18:49;23.02;;;10.23;;
73954;SDS011;62306;52.516;13.290;2024-02-21T09:21:17;25.42;;;10.38;;
73954;SDS011;62306;52.516;13.290;2024-02-21T09:23:45;27.88;;;10.55;;
73954;SDS011;62306;52.516;13.290;2024-02-21T09:26:12;25.33;;;10.80;;
73954;SDS011;62306;52.516;13.290;2024-02-21T09:28:41;26.17;;;10.80;;
73954;SDS011;62306;52.516;13.290;2024-02-21T09:31:08;22.13;;;11.30;;
73954;SDS011;62306;52.516;13.290;2024-02-21T09:33:35;27.80;;;10.02;;
73954;SDS011;62306;52.516;13.290;2024-02-21T09:36:04;23.45;;;10.75;;
73954;SDS011;62306;52.516;13.290;2024-02-21T09:38:31;25.75;;;11.32;;
73954;SDS011;62306;52.516;13.290;2024-02-21T09:40:59;24.73;;;11.40;;
73954;SDS011;62306;52.516;13.290;2024-02-21T09:43:30;25.60;;;11.20;;
73954;SDS011;62306;52.516;13.290;2024-02-21T09:45:59;28.67;;;11.57;;
73954;SDS011;62306;52.516;13.290;2024-02-21T09:48:34;28.52;;;11.93;;
73954;SDS011;62306;52.516;13.290;2024-02-21T09:51:11;22.77;;;10.23;;
73954;SDS011;62306;52.516;13.290;2024-02-21T09:53:40;23.27;;;10.60;;
73954;SDS011;62306;52.516;13.290;2024-02-21T09:56:08;24.85;;;10.75;;
73954;SDS011;62306;52.516;13.290;2024-02-21T09:58:35;21.27;;;10.43;;
73954;SDS011;62306;52.516;13.290;2024-02-21T10:01:03;28.85;;;11.73;;
73954;SDS011;62306;52.516;13.290;2024-02-21T10:03:31;21.88;;;10.50;;
73954;SDS011;62306;52.516;13.290;2024-02-21T10:05:59;27.52;;;10.80;;
73954;SDS011;62306;52.516;13.290;2024-02-21T10:08:28;27.38;;;10.60;;
73954;SDS011;62306;52.516;13.290;2024-02-21T10:10:55;21.13;;;10.27;;
73954;SDS011;62306;52.516;13.290;2024-02-21T10:13:25;36.33;;;18.45;;
73954;SDS011;62306;52.516;13.290;2024-02-21T10:16:03;18.58;;;10.32;;
73954;SDS011;62306;52.516;13.290;2024-02-21T10:18:31;21.77;;;10.68;;
73954;SDS011;62306;52.516;13.290;2024-02-21T10:21:04;20.42;;;11.10;;
73954;SDS011;62306;52.516;13.290;2024-02-21T10:23:42;22.50;;;9.98;;
73954;SDS011;62306;52.516;13.290;2024-02-21T10:26:09;18.98;;;9.77;;
73954;SDS011;62306;52.516;13.290;2024-02-21T10:28:37;26.42;;;10.70;;
73954;SDS011;62306;52.516;13.290;2024-02-21T10:31:07;30.33;;;11.35;;
73954;SDS011;62306;52.516;13.290;2024-02-21T10:33:35;23.25;;;10.27;;
73954;SDS011;62306;52.516;13.290;2024-02-21T10:36:06;21.67;;;9.95;;
73954;SDS011;62306;52.516;13.290;2024-02-21T10:38:35;19.50;;;9.88;;
73954;SDS011;62306;52.516;13.290;2024-02-21T10:41:05;18.20;;;10.27;;
73954;SDS011;62306;52.516;13.290;2024-02-21T10:43:33;26.35;;;10.30;;
73954;SDS011;62306;52.516;13.290;2024-02-21T10:48:33;26.00;;;9.82;;
73954;SDS011;62306;52.516;13.290;2024-02-21T10:51:12;18.00;;;9.70;;
73954;SDS011;62306;52.516;13.290;2024-02-21T10:53:44;22.10;;;9.82;;
73954;SDS011;62306;52.516;13.290;2024-02-21T10:56:16;19.15;;;9.05;;
73954;SDS011;62306;52.516;13.290;2024-02-21T10:58:52;22.23;;;10.10;;
73954;SDS011;62306;52.516;13.290;2024-02-21T11:01:20;21.70;;;10.40;;
73954;SDS011;62306;52.516;13.290;2024-02-21T11:03:49;19.25;;;9.95;;
73954;SDS011;62306;52.516;13.290;2024-02-21T11:06:18;23.73;;;9.73;;
73954;SDS011;62306;52.516;13.290;2024-02-21T11:08:46;14.27;;;9.38;;
73954;SDS011;62306;52.516;13.290;2024-02-21T11:11:14;20.83;;;9.20;;
73954;SDS011;62306;52.516;13.290;2024-02-21T11:13:45;18.35;;;9.15;;
73954;SDS011;62306;52.516;13.290;2024-02-21T11:16:21;23.42;;;10.18;;
73954;SDS011;62306;52.516;13.290;2024-02-21T11:18:49;22.75;;;9.50;;
73954;SDS011;62306;52.516;13.290;2024-02-21T11:21:16;17.52;;;8.18;;
73954;SDS011;62306;52.516;13.290;2024-02-21T11:23:43;19.33;;;9.23;;
73954;SDS011;62306;52.516;13.290;2024-02-21T11:26:19;21.92;;;9.45;;
73954;SDS011;62306;52.516;13.290;2024-02-21T11:28:55;21.98;;;8.23;;
73954;SDS011;62306;52.516;13.290;2024-02-21T11:31:24;13.93;;;7.13;;
73954;SDS011;62306;52.516;13.290;2024-02-21T11:33:52;17.20;;;7.65;;
73954;SDS011;62306;52.516;13.290;2024-02-21T11:36:24;14.55;;;7.32;;
73954;SDS011;62306;52.516;13.290;2024-02-21T11:38:51;13.43;;;7.22;;
73954;SDS011;62306;52.516;13.290;2024-02-21T11:41:20;16.02;;;7.43;;
73954;SDS011;62306;52.516;13.290;2024-02-21T11:43:48;12.93;;;6.55;;
73954;SDS011;62306;52.516;13.290;2024-02-21T11:46:16;14.77;;;7.05;;
73954;SDS011;62306;52.516;13.290;2024-02-21T11:48:44;14.52;;;7.05;;
73954;SDS011;62306;52.516;13.290;2024-02-21T11:51:20;15.43;;;7.10;;
73954;SDS011;62306;52.516;13.290;2024-02-21T11:53:48;11.43;;;6.30;;
73954;SDS011;62306;52.516;13.290;2024-02-21T11:56:15;14.15;;;6.55;;
73954;SDS011;62306;52.516;13.290;2024-02-21T11:58:43;13.15;;;6.95;;
73954;SDS011;62306;52.516;13.290;2024-02-21T12:01:10;10.82;;;6.93;;
73954;SDS011;62306;52.516;13.290;2024-02-21T12:03:37;13.77;;;6.22;;
73954;SDS011;62306;52.516;13.290;2024-02-21T12:06:06;14.05;;;7.05;;
73954;SDS011;62306;52.516;13.290;2024-02-21T12:08:42;14.13;;;6.10;;
73954;SDS011;62306;52.516;13.290;2024-02-21T12:11:17;15.18;;;6.53;;
73954;SDS011;62306;52.516;13.290;2024-02-21T12:13:59;9.65;;;6.25;;
73954;SDS011;62306;52.516;13.290;2024-02-21T12:16:27;12.73;;;6.63;;
73954;SDS011;62306;52.516;13.290;2024-02-21T12:18:55;12.98;;;5.75;;
73954;SDS011;62306;52.516;13.290;2024-02-21T12:21:25;12.73;;;6.03;;
73954;SDS011;62306;52.516;13.290;2024-02-21T12:23:53;11.93;;;5.80;;
73954;SDS011;62306;52.516;13.290;2024-02-21T12:26:20;12.75;;;5.40;;
73954;SDS011;62306;52.516;13.290;2024-02-21T12:28:47;11.70;;;5.88;;
73954;SDS011;62306;52.516;13.290;2024-02-21T12:31:16;11.98;;;5.50;;
73954;SDS011;62306;52.516;13.290;2024-02-21T12:33:43;16.95;;;7.78;;
73954;SDS011;62306;52.516;13.290;2024-02-21T12:36:10;13.77;;;6.90;;
73954;SDS011;62306;52.516;13.290;2024-02-21T12:38:37;11.35;;;5.00;;
73954;SDS011;62306;52.516;13.290;2024-02-21T12:41:04;10.52;;;4.93;;
73954;SDS011;62306;52.516;13.290;2024-02-21T12:43:31;10.80;;;5.07;;
73954;SDS011;62306;52.516;13.290;2024-02-21T12:45:58;8.52;;;4.22;;
73954;SDS011;62306;52.516;13.290;2024-02-21T12:48:26;9.20;;;5.50;;
73954;SDS011;62306;52.516;13.290;2024-02-21T12:50:54;9.80;;;5.30;;
73954;SDS011;62306;52.516;13.290;2024-02-21T12:53:21;10.60;;;5.63;;
73954;SDS011;62306;52.516;13.290;2024-02-21T12:55:48;13.88;;;5.03;;
73954;SDS011;62306;52.516;13.290;2024-02-21T12:58:15;15.43;;;7.43;;
73954;SDS011;62306;52.516;13.290;2024-02-21T13:00:42;30.90;;;15.45;;
73954;SDS011;62306;52.516;13.290;2024-02-21T13:03:09;10.60;;;6.97;;
73954;SDS011;62306;52.516;13.290;2024-02-21T13:05:38;11.75;;;5.03;;
73954;SDS011;62306;52.516;13.290;2024-02-21T13:08:05;10.02;;;4.40;;
73954;SDS011;62306;52.516;13.290;2024-02-21T13:10:32;20.88;;;11.88;;
73954;SDS011;62306;52.516;13.290;2024-02-21T13:13:00;11.05;;;5.45;;
73954;SDS011;62306;52.516;13.290;2024-02-21T13:15:27;11.73;;;5.88;;
73954;SDS011;62306;52.516;13.290;2024-02-21T13:17:54;16.55;;;9.27;;
73954;SDS011;62306;52.516;13.290;2024-02-21T13:20:22;9.02;;;5.30;;
73954;SDS011;62306;52.516;13.290;2024-02-21T13:22:50;12.18;;;5.63;;
73954;SDS011;62306;52.516;13.290;2024-02-21T13:25:17;10.85;;;5.82;;
73954;SDS011;62306;52.516;13.290;2024-02-21T13:27:46;10.52;;;6.25;;
73954;SDS011;62306;52.516;13.290;2024-02-21T13:30:13;13.30;;;4.45;;
73954;SDS011;62306;52.516;13.290;2024-02-21T13:32:42;12.30;;;5.97;;
73954;SDS011;62306;52.516;13.290;2024-02-21T13:35:11;13.82;;;5.28;;
73954;SDS011;62306;52.516;13.290;2024-02-21T13:37:38;11.40;;;4.60;;
73954;SDS011;62306;52.516;13.290;2024-02-21T13:40:07;15.88;;;5.10;;
73954;SDS011;62306;52.516;13.290;2024-02-21T13:42:35;51.38;;;29.63;;
73954;SDS011;62306;52.516;13.290;2024-02-21T13:45:02;19.55;;;8.13;;
73954;SDS011;62306;52.516;13.290;2024-02-21T13:47:31;16.85;;;6.10;;
73954;SDS011;62306;52.516;13.290;2024-02-21T13:49:58;12.27;;;5.60;;
73954;SDS011;62306;52.516;13.290;2024-02-21T13:52:25;10.70;;;5.20;;
73954;SDS011;62306;52.516;13.290;2024-02-21T13:54:52;13.93;;;4.95;;
73954;SDS011;62306;52.516;13.290;2024-02-21T13:57:20;13.02;;;4.60;;
73954;SDS011;62306;52.516;13.290;2024-02-21T13:59:47;10.93;;;4.82;;
73954;SDS011;62306;52.516;13.290;2024-02-21T14:02:15;9.70;;;4.57;;
73954;SDS011;62306;52.516;13.290;2024-02-21T14:04:41;14.52;;;5.35;;
73954;SDS011;62306;52.516;13.290;2024-02-21T14:07:08;14.23;;;4.43;;
73954;SDS011;62306;52.516;13.290;2024-02-21T14:09:35;34.60;;;21.40;;
73954;SDS011;62306;52.516;13.290;2024-02-21T14:12:02;15.77;;;6.57;;
73954;SDS011;62306;52.516;13.290;2024-02-21T14:14:34;11.70;;;5.63;;
73954;SDS011;62306;52.516;13.290;2024-02-21T14:17:01;13.40;;;4.93;;
73954;SDS011;62306;52.516;13.290;2024-02-21T14:19:29;15.60;;;5.15;;
73954;SDS011;62306;52.516;13.290;2024-02-21T14:21:56;9.23;;;4.40;;
73954;SDS011;62306;52.516;13.290;2024-02-21T14:24:23;13.85;;;4.90;;